createdAt,value
2022-09-29T00:00:40.575Z,7.50
2022-09-29T00:03:07.574Z,7.50
2022-09-29T00:05:34.510Z,7.50
2022-09-29T00:08:01.509Z,7.50
2022-09-29T00:10:28.309Z,7.40
2022-09-29T00:12:55.044Z,7.40
2022-09-29T00:15:21.800Z,7.40
2022-09-29T00:18:12.317Z,7.40
2022-09-29T00:20:35.678Z,7.30
2022-09-29T00:23:02.665Z,7.30
2022-09-29T00:25:30.837Z,7.30
2022-09-29T00:27:57.582Z,7.30
2022-09-29T00:30:24.371Z,7.20
2022-09-29T00:32:51.367Z,7.20
2022-09-29T00:35:18.304Z,7.20
2022-09-29T00:37:45.317Z,7.20
2022-09-29T00:40:12.116Z,7.20
2022-09-29T00:42:38.997Z,7.20
2022-09-29T00:45:23.026Z,7.20
2022-09-29T00:48:11.136Z,7.20
2022-09-29T00:50:53.335Z,7.10
2022-09-29T00:53:21.681Z,7.10
2022-09-29T00:56:01.193Z,7.10
2022-09-29T00:58:41.417Z,7.10
2022-09-29T01:01:08.650Z,7.10
2022-09-29T01:03:43.466Z,7.00
2022-09-29T01:06:13.803Z,7.00
2022-09-29T01:08:48.129Z,7.00
2022-09-29T01:11:14.909Z,6.90
2022-09-29T01:13:41.879Z,6.90
2022-09-29T01:16:08.741Z,6.90
2022-09-29T01:18:35.442Z,6.90
2022-09-29T01:21:33.025Z,6.80
2022-09-29T01:24:27.386Z,6.90
2022-09-29T01:27:18.248Z,6.80
2022-09-29T01:30:03.845Z,6.80
2022-09-29T01:33:09.049Z,6.80
2022-09-29T01:36:20.235Z,6.70
2022-09-29T01:39:24.019Z,6.70
2022-09-29T01:42:00.332Z,6.70
2022-09-29T01:44:54.416Z,6.70
2022-09-29T01:47:22.928Z,6.60
2022-09-29T01:49:56.705Z,6.60
2022-09-29T01:52:25.429Z,6.60
2022-09-29T01:55:12.385Z,6.60
2022-09-29T01:57:53.488Z,6.50
2022-09-29T02:00:20.996Z,6.50
2022-09-29T02:03:10.580Z,6.40
2022-09-29T02:05:59.281Z,6.40
2022-09-29T02:08:40.799Z,6.40
2022-09-29T02:11:14.570Z,6.40
2022-09-29T02:13:47.644Z,6.30
2022-09-29T02:16:19.254Z,6.30
2022-09-29T02:18:56.206Z,6.30
2022-09-29T02:21:24.990Z,6.30
2022-09-29T02:23:52.183Z,6.30
2022-09-29T02:26:19.406Z,6.30
2022-09-29T02:28:46.155Z,6.30
2022-09-29T02:31:13.395Z,6.30
2022-09-29T02:33:40.265Z,6.30
2022-09-29T02:36:19.305Z,6.20
2022-09-29T02:39:01.958Z,6.20
2022-09-29T02:41:49.133Z,6.30
2022-09-29T02:44:52.523Z,6.20
2022-09-29T02:47:40.651Z,6.20
2022-09-29T02:50:07.917Z,6.10
2022-09-29T02:52:49.814Z,6.10
2022-09-29T02:55:44.668Z,6.00
2022-09-29T02:58:34.586Z,6.00
2022-09-29T03:01:01.318Z,6.00
2022-09-29T03:03:28.101Z,6.00
2022-09-29T03:05:55.101Z,6.00
2022-09-29T03:08:21.832Z,5.90
2022-09-29T03:10:49.700Z,6.00
2022-09-29T03:13:16.427Z,6.00
2022-09-29T03:18:41.934Z,5.90
2022-09-29T03:21:08.906Z,5.90
2022-09-29T03:23:35.713Z,5.70
2022-09-29T03:26:02.467Z,6.00
2022-09-29T03:28:29.245Z,6.00
2022-09-29T03:31:06.086Z,6.00
2022-09-29T03:33:34.219Z,6.00
2022-09-29T03:36:01.537Z,6.00
2022-09-29T03:38:28.407Z,6.00
2022-09-29T03:40:55.306Z,6.00
2022-09-29T03:43:22.211Z,6.00
2022-09-29T03:45:50.317Z,6.00
2022-09-29T03:48:20.591Z,6.00
2022-09-29T03:50:50.479Z,6.00
2022-09-29T03:53:17.855Z,6.00
2022-09-29T03:55:48.370Z,6.00
2022-09-29T03:58:15.641Z,6.00
2022-09-29T04:00:48.805Z,6.00
2022-09-29T04:03:16.115Z,6.00
2022-09-29T04:05:48.619Z,5.90
2022-09-29T04:08:20.230Z,5.90
2022-09-29T04:10:47.926Z,5.90
2022-09-29T04:13:20.073Z,5.90
2022-09-29T04:15:48.859Z,5.90
2022-09-29T04:18:16.137Z,5.90
2022-09-29T04:20:43.344Z,5.90
2022-09-29T04:23:18.957Z,5.90
2022-09-29T04:25:46.236Z,5.90
2022-09-29T04:28:19.687Z,5.90
2022-09-29T04:30:46.423Z,5.90
2022-09-29T04:33:13.188Z,5.90
2022-09-29T04:35:39.960Z,5.90
2022-09-29T04:38:08.247Z,5.90
2022-09-29T04:40:35.995Z,6.00
2022-09-29T04:43:04.086Z,6.00
2022-09-29T04:45:31.053Z,6.00
2022-09-29T04:47:57.999Z,6.00
2022-09-29T04:50:24.796Z,6.10
2022-09-29T04:52:51.700Z,6.10
2022-09-29T04:55:18.753Z,6.20
2022-09-29T04:57:46.474Z,6.30
2022-09-29T05:00:13.498Z,6.30
2022-09-29T05:02:40.412Z,6.40
2022-09-29T05:05:08.138Z,6.40
2022-09-29T05:07:37.536Z,6.40
2022-09-29T05:10:05.028Z,6.50
2022-09-29T05:12:31.907Z,6.60
2022-09-29T05:14:58.801Z,6.60
2022-09-29T05:17:25.720Z,6.70
2022-09-29T05:19:52.555Z,6.70
2022-09-29T05:22:24.563Z,6.80
2022-09-29T05:24:52.288Z,6.80
2022-09-29T05:27:19.006Z,6.90
2022-09-29T05:29:45.771Z,6.90
2022-09-29T05:32:12.691Z,6.90
2022-09-29T05:34:39.659Z,7.00
2022-09-29T05:37:06.552Z,7.00
2022-09-29T05:39:34.720Z,7.10
2022-09-29T05:42:02.512Z,7.10
2022-09-29T05:44:29.468Z,7.10
2022-09-29T05:46:56.418Z,7.20
2022-09-29T05:49:23.395Z,7.20
2022-09-29T05:51:50.921Z,7.30
2022-09-29T05:54:17.815Z,7.30
2022-09-29T05:56:45.582Z,7.40
2022-09-29T05:59:13.292Z,7.40
2022-09-29T06:01:40.174Z,7.40
2022-09-29T06:04:07.599Z,7.50
2022-09-29T06:06:36.691Z,7.50
2022-09-29T06:09:09.264Z,7.60
2022-09-29T06:11:36.126Z,7.60
2022-09-29T06:14:03.579Z,7.60
2022-09-29T06:16:31.098Z,7.70
2022-09-29T06:18:59.812Z,7.70
2022-09-29T06:21:27.728Z,7.80
2022-09-29T06:23:55.240Z,7.80
2022-09-29T06:26:24.169Z,7.90
2022-09-29T06:28:52.330Z,7.90
2022-09-29T06:31:21.075Z,8.00
2022-09-29T06:33:47.963Z,8.00
2022-09-29T06:36:46.020Z,8.10
2022-09-29T06:39:14.011Z,8.10
2022-09-29T06:41:41.595Z,8.20
2022-09-29T06:44:08.562Z,8.20
2022-09-29T06:46:35.875Z,8.30
2022-09-29T06:49:04.754Z,8.30
2022-09-29T06:51:44.304Z,8.40
2022-09-29T06:54:13.593Z,8.40
2022-09-29T06:56:40.523Z,8.50
2022-09-29T06:59:08.460Z,8.60
2022-09-29T07:01:35.340Z,8.50
2022-09-29T07:04:02.780Z,8.60
2022-09-29T07:06:30.369Z,8.60
2022-09-29T07:08:58.306Z,8.70
2022-09-29T07:11:26.345Z,8.70
2022-09-29T07:13:54.866Z,8.70
2022-09-29T07:16:24.383Z,8.70
2022-09-29T07:18:51.699Z,8.80
2022-09-29T07:21:18.988Z,8.80
2022-09-29T07:23:46.721Z,8.90
2022-09-29T07:26:14.722Z,8.90
2022-09-29T07:28:41.645Z,9.00
2022-09-29T07:31:14.809Z,9.00
2022-09-29T07:33:42.830Z,9.10
2022-09-29T07:36:09.711Z,9.20
2022-09-29T07:38:36.610Z,9.30
2022-09-29T07:41:04.930Z,9.40
2022-09-29T07:43:31.965Z,9.40
2022-09-29T07:46:00.375Z,9.50
2022-09-29T07:48:31.849Z,9.60
2022-09-29T07:51:18.920Z,9.70
2022-09-29T07:53:45.992Z,9.80
2022-09-29T07:56:20.521Z,9.80
2022-09-29T07:58:47.875Z,9.90
2022-09-29T08:01:16.225Z,9.90
2022-09-29T08:03:45.037Z,9.90
2022-09-29T08:06:12.042Z,9.90
2022-09-29T08:08:39.303Z,10.00
2022-09-29T08:11:08.028Z,10.00
2022-09-29T08:13:36.243Z,10.20
2022-09-29T08:16:04.550Z,10.30
2022-09-29T08:18:31.741Z,10.40
2022-09-29T08:21:01.329Z,10.60
2022-09-29T08:23:31.996Z,10.80
2022-09-29T08:26:03.006Z,11.00
2022-09-29T08:28:32.523Z,11.20
2022-09-29T08:31:10.410Z,11.30
2022-09-29T08:33:37.232Z,11.60
2022-09-29T08:36:09.142Z,11.90
2022-09-29T08:38:42.818Z,12.20
2022-09-29T08:41:40.208Z,12.40
2022-09-29T08:44:36.674Z,12.70
2022-09-29T08:47:10.786Z,13.10
2022-09-29T08:49:51.012Z,13.40
2022-09-29T08:52:26.382Z,13.60
2022-09-29T08:55:16.041Z,14.00
2022-09-29T08:57:55.974Z,14.20
2022-09-29T09:00:23.169Z,14.40
2022-09-29T09:03:14.527Z,14.50
2022-09-29T09:05:58.315Z,14.70
2022-09-29T09:08:50.117Z,14.70
2022-09-29T09:11:29.723Z,14.80
2022-09-29T09:14:08.121Z,15.10
2022-09-29T09:16:53.103Z,15.10
2022-09-29T09:19:41.824Z,15.20
2022-09-29T09:22:32.972Z,15.10
2022-09-29T09:25:18.112Z,15.00
2022-09-29T09:27:47.344Z,14.70
2022-09-29T09:30:16.551Z,14.60
2022-09-29T09:32:52.958Z,14.60
2022-09-29T09:35:58.379Z,14.50
2022-09-29T09:38:28.327Z,14.50
2022-09-29T09:40:56.979Z,14.40
2022-09-29T09:43:37.475Z,14.20
2022-09-29T09:46:18.178Z,14.20
2022-09-29T09:48:55.536Z,14.10
2022-09-29T09:54:25.781Z,13.90
2022-09-29T09:56:55.466Z,13.90
2022-09-29T09:59:25.896Z,13.90
2022-09-29T10:01:52.739Z,14.00
2022-09-29T10:04:19.548Z,14.00
2022-09-29T10:06:46.441Z,14.20
2022-09-29T10:09:14.874Z,14.40
2022-09-29T10:11:42.183Z,14.50
2022-09-29T10:14:35.481Z,14.60
2022-09-29T10:17:05.332Z,14.70
2022-09-29T10:20:08.503Z,14.70
2022-09-29T10:22:35.547Z,14.70
2022-09-29T10:25:16.329Z,14.70
2022-09-29T10:27:45.726Z,14.70
2022-09-29T10:30:20.954Z,14.70
2022-09-29T10:32:48.113Z,14.80
2022-09-29T10:35:26.520Z,14.70
2022-09-29T10:38:02.201Z,14.70
2022-09-29T10:40:29.010Z,14.70
2022-09-29T10:42:56.321Z,14.70
2022-09-29T10:45:25.078Z,14.80
2022-09-29T10:47:57.735Z,15.00
2022-09-29T10:50:55.311Z,15.40
2022-09-29T10:53:34.547Z,16.00
2022-09-29T10:56:01.831Z,16.50
2022-09-29T10:58:45.104Z,17.10
2022-09-29T11:01:18.874Z,17.60
2022-09-29T11:04:03.543Z,18.30
2022-09-29T11:06:48.905Z,18.90
2022-09-29T11:09:16.042Z,19.40
2022-09-29T11:11:48.811Z,19.70
2022-09-29T11:14:29.288Z,19.90
2022-09-29T11:16:58.308Z,19.90
2022-09-29T11:19:25.049Z,19.70
2022-09-29T11:21:52.063Z,19.40
2022-09-29T11:24:27.794Z,19.30
2022-09-29T11:27:28.364Z,19.40
2022-09-29T11:30:03.896Z,19.40
2022-09-29T11:33:01.163Z,19.40
2022-09-29T11:35:51.798Z,19.40
2022-09-29T11:38:52.652Z,19.50
2022-09-29T11:41:29.723Z,19.60
2022-09-29T11:44:11.416Z,20.00
2022-09-29T11:47:08.057Z,20.50
2022-09-29T11:49:46.956Z,20.80
2022-09-29T11:52:32.780Z,21.00
2022-09-29T11:55:16.242Z,20.70
2022-09-29T11:58:12.574Z,20.20
2022-09-29T12:00:54.859Z,19.70
2022-09-29T12:03:37.103Z,19.20
2022-09-29T12:06:45.704Z,18.70
2022-09-29T12:09:24.087Z,18.30
2022-09-29T12:12:22.474Z,17.90
2022-09-29T12:15:14.954Z,17.70
2022-09-29T12:17:44.344Z,17.50
2022-09-29T12:20:31.331Z,17.40
2022-09-29T12:23:04.221Z,17.40
2022-09-29T12:25:33.429Z,17.80
2022-09-29T12:28:07.620Z,18.40
2022-09-29T12:30:56.589Z,19.00
2022-09-29T12:33:38.062Z,19.30
2022-09-29T12:36:33.423Z,19.60
2022-09-29T12:39:16.623Z,20.00
2022-09-29T12:41:47.060Z,20.30
2022-09-29T12:44:38.607Z,20.70
2022-09-29T12:47:28.137Z,21.10
2022-09-29T12:50:03.188Z,21.40
2022-09-29T12:52:51.498Z,21.80
2022-09-29T12:55:22.126Z,22.20
2022-09-29T12:57:51.411Z,22.50
2022-09-29T13:00:24.688Z,22.80
2022-09-29T13:03:16.465Z,23.00
2022-09-29T13:06:22.497Z,23.00
2022-09-29T13:08:58.379Z,22.80
2022-09-29T13:11:39.781Z,22.50
2022-09-29T13:14:30.605Z,22.20
2022-09-29T13:17:38.929Z,22.40
2022-09-29T13:20:14.699Z,22.70
2022-09-29T13:23:04.580Z,22.90
2022-09-29T13:25:57.401Z,23.20
2022-09-29T13:28:26.062Z,23.60
2022-09-29T13:30:53.591Z,23.70
2022-09-29T13:33:22.288Z,23.90
2022-09-29T13:35:49.902Z,24.00
2022-09-29T13:38:33.661Z,23.90
2022-09-29T13:41:16.394Z,23.80
2022-09-29T13:43:43.274Z,23.70
2022-09-29T13:46:32.143Z,23.50
2022-09-29T13:49:12.196Z,23.40
2022-09-29T13:51:49.834Z,23.40
2022-09-29T13:54:45.386Z,23.50
2022-09-29T13:57:28.020Z,23.80
2022-09-29T13:59:55.398Z,23.90
2022-09-29T14:02:34.533Z,24.10
2022-09-29T14:05:01.471Z,24.30
2022-09-29T14:08:09.263Z,24.40
2022-09-29T14:10:39.227Z,24.60
2022-09-29T14:13:15.792Z,24.70
2022-09-29T14:16:02.266Z,24.80
2022-09-29T14:18:47.370Z,24.80
2022-09-29T14:21:47.531Z,24.80
2022-09-29T14:24:50.514Z,24.60
2022-09-29T14:27:19.911Z,24.10
2022-09-29T14:30:09.855Z,23.50
2022-09-29T14:32:46.384Z,22.80
2022-09-29T14:35:29.886Z,22.30
2022-09-29T14:38:24.408Z,21.80
2022-09-29T14:41:20.923Z,21.20
2022-09-29T14:44:23.457Z,20.80
2022-09-29T14:47:23.945Z,20.80
2022-09-29T14:50:48.799Z,21.00
2022-09-29T14:53:54.897Z,21.30
2022-09-29T14:56:28.709Z,21.40
2022-09-29T14:59:11.114Z,21.30
2022-09-29T15:01:39.250Z,21.10
2022-09-29T15:04:17.877Z,20.80
2022-09-29T15:06:49.553Z,20.50
2022-09-29T15:09:17.981Z,20.20
2022-09-29T15:11:52.854Z,19.90
2022-09-29T15:14:27.831Z,19.50
2022-09-29T15:16:58.036Z,19.20
2022-09-29T15:19:33.835Z,19.00
2022-09-29T15:22:11.688Z,18.70
2022-09-29T15:25:17.518Z,18.60
2022-09-29T15:27:45.442Z,18.40
2022-09-29T15:30:17.328Z,18.30
2022-09-29T15:32:48.609Z,18.30
2022-09-29T15:35:19.513Z,18.20
2022-09-29T15:37:55.518Z,18.20
2022-09-29T15:40:24.635Z,18.10
2022-09-29T15:42:53.750Z,18.10
2022-09-29T15:45:31.301Z,18.00
2022-09-29T15:48:03.764Z,17.90
2022-09-29T15:50:38.619Z,17.90
2022-09-29T15:53:06.756Z,17.80
2022-09-29T15:55:33.727Z,17.70
2022-09-29T15:58:24.997Z,17.70
2022-09-29T16:00:58.976Z,17.70
2022-09-29T16:03:40.107Z,17.80
2022-09-29T16:06:18.240Z,17.90
2022-09-29T16:08:50.441Z,18.10
2022-09-29T16:11:22.201Z,18.20
2022-09-29T16:13:52.758Z,18.30
2022-09-29T16:16:19.735Z,18.50
2022-09-29T16:18:49.995Z,18.70
2022-09-29T16:21:18.736Z,18.90
2022-09-29T16:24:07.180Z,19.00
2022-09-29T16:26:47.365Z,19.20
2022-09-29T16:29:20.382Z,19.20
2022-09-29T16:31:48.452Z,19.20
2022-09-29T16:34:21.663Z,19.10
2022-09-29T16:36:52.486Z,19.00
2022-09-29T16:39:21.162Z,18.90
2022-09-29T16:41:49.004Z,18.80
2022-09-29T16:44:36.141Z,18.80
2022-09-29T16:47:29.851Z,18.70
2022-09-29T16:49:58.222Z,18.80
2022-09-29T16:52:44.961Z,18.90
2022-09-29T16:55:20.997Z,19.00
2022-09-29T16:58:05.387Z,19.10
2022-09-29T17:00:32.505Z,19.10
2022-09-29T17:03:03.183Z,19.00
2022-09-29T17:05:30.058Z,18.70
2022-09-29T17:08:01.428Z,18.50
2022-09-29T17:10:28.271Z,18.20
2022-09-29T17:12:55.452Z,17.90
2022-09-29T17:15:22.514Z,17.60
2022-09-29T17:17:50.399Z,17.40
2022-09-29T17:20:29.950Z,17.10
2022-09-29T17:23:00.077Z,16.90
2022-09-29T17:25:30.188Z,16.70
2022-09-29T17:28:12.496Z,16.50
2022-09-29T17:30:39.996Z,16.30
2022-09-29T17:33:09.068Z,16.10
2022-09-29T17:35:37.830Z,15.90
2022-09-29T17:38:07.686Z,15.70
2022-09-29T17:40:53.847Z,15.60
2022-09-29T17:43:23.495Z,15.40
2022-09-29T17:45:50.957Z,15.20
2022-09-29T17:48:20.107Z,15.10
2022-09-29T17:50:48.569Z,14.90
2022-09-29T17:53:16.678Z,14.80
2022-09-29T17:55:49.596Z,14.70
2022-09-29T17:58:17.466Z,14.50
2022-09-29T18:00:47.125Z,14.40
2022-09-29T18:03:14.198Z,14.30
2022-09-29T18:05:42.370Z,14.20
2022-09-29T18:08:16.947Z,14.00
2022-09-29T18:10:47.644Z,13.90
2022-09-29T18:13:14.655Z,13.80
2022-09-29T18:15:43.720Z,13.70
2022-09-29T18:18:11.905Z,13.60
2022-09-29T18:20:40.222Z,13.50
2022-09-29T18:23:07.255Z,13.40
2022-09-29T18:25:34.499Z,13.30
2022-09-29T18:28:02.201Z,13.20
2022-09-29T18:30:35.226Z,13.10
2022-09-29T18:33:03.019Z,13.00
2022-09-29T18:35:31.553Z,13.00
2022-09-29T18:37:59.449Z,13.00
2022-09-29T18:40:27.062Z,12.90
2022-09-29T18:42:58.319Z,12.80
2022-09-29T18:45:27.549Z,12.70
2022-09-29T18:47:58.888Z,12.70
2022-09-29T18:50:30.995Z,12.60
2022-09-29T18:52:59.575Z,12.60
2022-09-29T18:55:30.001Z,12.50
2022-09-29T18:57:57.900Z,12.50
2022-09-29T19:00:30.139Z,12.40
2022-09-29T19:02:58.178Z,12.30
2022-09-29T19:05:30.072Z,12.30
2022-09-29T19:08:03.475Z,12.20
2022-09-29T19:10:34.326Z,12.20
2022-09-29T19:13:04.118Z,12.10
2022-09-29T19:15:34.540Z,12.00
2022-09-29T19:18:02.790Z,12.00
2022-09-29T19:20:30.377Z,11.90
2022-09-29T19:23:02.716Z,11.90
2022-09-29T19:25:34.371Z,11.90
2022-09-29T19:28:05.177Z,11.80
2022-09-29T19:30:36.857Z,11.90
2022-09-29T19:33:03.769Z,11.80
2022-09-29T19:35:30.744Z,11.80
2022-09-29T19:37:59.382Z,11.80
2022-09-29T19:40:28.288Z,11.70
2022-09-29T19:42:55.255Z,11.70
2022-09-29T19:45:22.194Z,11.70
2022-09-29T19:47:54.975Z,11.80
2022-09-29T19:50:40.583Z,11.80
2022-09-29T19:53:10.745Z,11.80
2022-09-29T19:55:40.475Z,11.80
2022-09-29T19:58:07.700Z,11.80
2022-09-29T20:00:43.805Z,11.70
2022-09-29T20:03:10.788Z,11.70
2022-09-29T20:05:38.221Z,11.60
2022-09-29T20:08:05.876Z,11.60
2022-09-29T20:10:33.075Z,11.50
2022-09-29T20:13:02.593Z,11.40
2022-09-29T20:15:30.389Z,11.30
2022-09-29T20:18:00.443Z,11.30
2022-09-29T20:20:28.036Z,11.20
2022-09-29T20:22:55.286Z,11.10
2022-09-29T20:25:22.437Z,11.10
2022-09-29T20:27:54.646Z,11.10
2022-09-29T20:30:21.598Z,11.00
2022-09-29T20:32:49.571Z,11.00
2022-09-29T20:35:18.146Z,10.90
2022-09-29T20:37:50.012Z,10.90
2022-09-29T20:40:17.287Z,10.90
2022-09-29T20:42:46.172Z,10.90
2022-09-29T20:45:14.034Z,10.80
2022-09-29T20:47:41.006Z,10.80
2022-09-29T20:50:09.474Z,10.70
2022-09-29T20:52:40.097Z,10.70
2022-09-29T20:55:07.267Z,10.70
2022-09-29T20:57:34.392Z,10.70
2022-09-29T21:00:01.520Z,10.50
2022-09-29T21:02:30.342Z,10.60
2022-09-29T21:04:57.584Z,10.60
2022-09-29T21:07:36.989Z,10.50
2022-09-29T21:10:06.982Z,10.50
2022-09-29T21:12:34.181Z,10.50
2022-09-29T21:15:01.226Z,10.40
2022-09-29T21:17:28.733Z,10.40
2022-09-29T21:19:55.870Z,10.40
2022-09-29T21:22:27.240Z,10.40
2022-09-29T21:24:54.928Z,10.30
2022-09-29T21:27:22.020Z,10.40
2022-09-29T21:29:49.442Z,10.30
2022-09-29T21:32:16.482Z,10.30
2022-09-29T21:34:43.432Z,10.30
2022-09-29T21:37:29.326Z,10.30
2022-09-29T21:39:56.163Z,10.30
2022-09-29T21:42:23.232Z,10.20
2022-09-29T21:44:52.040Z,10.20
2022-09-29T21:47:41.679Z,10.20
2022-09-29T21:50:11.739Z,10.20
2022-09-29T21:52:43.452Z,10.20
2022-09-29T21:55:15.248Z,10.20
2022-09-29T21:57:42.282Z,10.20
2022-09-29T22:00:09.928Z,10.20
2022-09-29T22:02:37.251Z,10.30
2022-09-29T22:05:07.417Z,10.30
2022-09-29T22:07:34.842Z,10.40
2022-09-29T22:10:01.857Z,10.40
2022-09-29T22:12:28.761Z,10.40
2022-09-29T22:14:55.820Z,10.40
2022-09-29T22:17:23.052Z,10.50
2022-09-29T22:19:50.552Z,10.50
2022-09-29T22:22:17.859Z,10.50
2022-09-29T22:24:45.000Z,10.60
2022-09-29T22:27:14.522Z,10.50
2022-09-29T22:29:41.756Z,10.40
2022-09-29T22:32:08.842Z,10.40
2022-09-29T22:34:37.501Z,10.40
2022-09-29T22:37:04.539Z,10.40
2022-09-29T22:39:31.621Z,10.30
2022-09-29T22:42:01.792Z,10.30
2022-09-29T22:44:30.457Z,10.20
2022-09-29T22:46:58.179Z,10.20
2022-09-29T22:49:36.803Z,10.20
2022-09-29T22:52:07.526Z,10.10
2022-09-29T22:54:40.020Z,10.10
2022-09-29T22:57:07.086Z,10.00
2022-09-29T22:59:39.561Z,10.00
2022-09-29T23:02:13.446Z,10.00
2022-09-29T23:04:40.691Z,9.90
2022-09-29T23:07:08.767Z,9.90
2022-09-29T23:09:36.329Z,9.80
2022-09-29T23:12:03.615Z,9.80
2022-09-29T23:14:33.983Z,9.80
2022-09-29T23:17:01.116Z,9.70
2022-09-29T23:19:31.357Z,9.70
2022-09-29T23:22:07.854Z,9.70
2022-09-29T23:24:35.084Z,9.70
2022-09-29T23:27:02.226Z,9.60
2022-09-29T23:29:29.501Z,9.60
2022-09-29T23:31:56.639Z,9.60
2022-09-29T23:34:23.929Z,9.60
2022-09-29T23:36:54.551Z,9.50
2022-09-29T23:39:22.525Z,9.40
2022-09-29T23:41:50.984Z,9.40
2022-09-29T23:44:25.590Z,9.40
2022-09-29T23:46:56.469Z,9.30
2022-09-29T23:49:25.576Z,9.30
2022-09-29T23:51:57.284Z,9.20
2022-09-29T23:54:25.633Z,9.20
2022-09-29T23:56:56.490Z,9.10
2022-09-29T23:59:23.865Z,9.20
